createdAt,value
2022-08-12T00:01:03.374Z,72.19
2022-08-12T00:03:55.685Z,70.81
2022-08-12T00:10:04.595Z,65.42
2022-08-12T00:12:57.863Z,61.48
2022-08-12T00:15:50.493Z,60.69
2022-08-12T00:18:41.678Z,63.32
2022-08-12T00:21:36.101Z,61.94
2022-08-12T00:24:30.824Z,60.87
2022-08-12T00:27:25.120Z,60.54
2022-08-12T00:30:19.428Z,58.62
2022-08-12T00:33:11.213Z,58.36
2022-08-12T00:36:02.696Z,58.47
2022-08-12T00:38:54.042Z,51.22
2022-08-12T00:41:47.068Z,54.93
2022-08-12T00:44:21.538Z,55.82
2022-08-12T00:46:58.764Z,56.55
2022-08-12T00:49:31.876Z,56.39
2022-08-12T00:52:06.231Z,55.48
2022-08-12T00:54:55.143Z,54.27
2022-08-12T00:57:36.883Z,55.96
2022-08-12T01:00:20.842Z,55.82
2022-08-12T01:02:58.028Z,56.26
2022-08-12T01:05:49.786Z,55.58
2022-08-12T01:08:40.578Z,54.86
2022-08-12T01:11:32.173Z,54.67
2022-08-12T01:14:12.482Z,54.78
2022-08-12T01:16:47.978Z,51.50
2022-08-12T01:19:23.768Z,54.83
2022-08-12T01:22:11.752Z,55.48
2022-08-12T01:25:17.857Z,55.53
2022-08-12T01:27:52.154Z,56.37
2022-08-12T01:30:26.299Z,55.68
2022-08-12T01:33:02.458Z,56.17
2022-08-12T01:35:38.264Z,59.89
2022-08-12T01:38:14.821Z,64.56
2022-08-12T01:40:51.573Z,66.22
2022-08-12T01:43:26.585Z,58.48
2022-08-12T01:46:19.445Z,63.72
2022-08-12T01:49:07.471Z,72.74
2022-08-12T01:52:20.856Z,67.98
2022-08-12T01:54:43.550Z,64.44
2022-08-12T01:57:57.914Z,63.19
2022-08-12T02:00:56.112Z,63.53
2022-08-12T02:04:05.302Z,63.18
2022-08-12T02:07:15.648Z,70.95
2022-08-12T02:10:49.093Z,70.32
2022-08-12T02:14:01.935Z,67.81
2022-08-12T02:16:49.477Z,66.02
2022-08-12T02:19:37.503Z,65.35
2022-08-12T02:22:44.891Z,69.66
2022-08-12T02:25:36.860Z,71.44
2022-08-12T02:28:11.777Z,77.39
2022-08-12T02:30:44.410Z,73.32
2022-08-12T02:33:18.980Z,68.07
2022-08-12T02:35:51.532Z,67.77
2022-08-12T02:38:27.076Z,66.29
2022-08-12T02:41:03.714Z,65.99
2022-08-12T02:43:41.523Z,68.15
2022-08-12T02:46:21.381Z,69.35
2022-08-12T02:49:15.810Z,66.24
2022-08-12T02:51:48.362Z,63.86
2022-08-12T02:54:23.442Z,67.52
2022-08-12T02:56:55.956Z,66.79
2022-08-12T02:59:30.449Z,65.39
2022-08-12T03:02:03.825Z,63.67
2022-08-12T03:04:57.352Z,63.20
2022-08-12T03:07:59.601Z,62.54
2022-08-12T03:10:37.349Z,63.88
2022-08-12T03:13:13.952Z,60.48
2022-08-12T03:15:47.202Z,60.74
2022-08-12T03:18:28.427Z,60.61
2022-08-12T03:21:01.977Z,61.77
2022-08-12T03:23:39.522Z,61.47
2022-08-12T03:26:13.042Z,62.15
2022-08-12T03:28:54.291Z,59.84
2022-08-12T03:31:33.659Z,61.84
2022-08-12T03:34:11.740Z,60.01
2022-08-12T03:36:47.341Z,60.54
2022-08-12T03:39:35.926Z,58.48
2022-08-12T03:42:40.681Z,58.49
2022-08-12T03:45:51.614Z,61.62
2022-08-12T03:48:45.052Z,60.62
2022-08-12T03:51:37.812Z,60.60
2022-08-12T03:54:29.739Z,59.47
2022-08-12T03:57:21.252Z,60.90
2022-08-12T04:00:12.110Z,61.24
2022-08-12T04:03:01.957Z,61.52
2022-08-12T04:05:55.397Z,61.99
2022-08-12T04:08:27.604Z,63.38
2022-08-12T04:11:18.611Z,62.95
2022-08-12T04:13:51.621Z,60.80
2022-08-12T04:16:24.128Z,61.20
2022-08-12T04:19:02.531Z,62.92
2022-08-12T04:21:36.219Z,61.58
2022-08-12T04:24:10.101Z,63.61
2022-08-12T04:26:42.506Z,62.34
2022-08-12T04:29:15.212Z,63.21
2022-08-12T04:31:49.410Z,63.15
2022-08-12T04:34:23.487Z,63.70
2022-08-12T04:37:04.569Z,64.36
2022-08-12T04:39:42.296Z,64.46
2022-08-12T04:42:20.143Z,65.07
2022-08-12T04:45:04.090Z,65.45
2022-08-12T04:47:39.868Z,68.85
2022-08-12T04:50:33.825Z,69.53
2022-08-12T04:53:11.831Z,71.10
2022-08-12T04:55:52.182Z,69.24
2022-08-12T04:58:29.761Z,68.20
2022-08-12T05:01:05.948Z,70.44
2022-08-12T05:03:54.442Z,71.79
2022-08-12T05:06:29.809Z,73.09
2022-08-12T05:09:19.388Z,71.05
2022-08-12T05:12:01.366Z,69.71
2022-08-12T05:17:47.139Z,68.61
2022-08-12T05:20:26.459Z,68.64
2022-08-12T05:23:25.076Z,67.76
2022-08-12T05:26:04.589Z,65.30
2022-08-12T05:29:09.146Z,65.60
2022-08-12T05:32:06.008Z,64.99
2022-08-12T05:34:45.995Z,62.54
2022-08-12T05:37:18.475Z,64.87
2022-08-12T05:40:11.234Z,63.84
2022-08-12T05:42:48.525Z,62.44
2022-08-12T05:45:23.120Z,64.29
2022-08-12T05:47:59.946Z,63.95
2022-08-12T05:50:36.690Z,62.34
2022-08-12T05:53:13.322Z,63.72
2022-08-12T05:55:50.628Z,62.23
2022-08-12T05:58:24.211Z,61.73
2022-08-12T06:02:10.360Z,61.65
2022-08-12T06:04:10.740Z,61.50
2022-08-12T06:06:59.065Z,61.31
2022-08-12T06:09:40.650Z,60.46
2022-08-12T06:12:18.341Z,60.61
2022-08-12T06:14:51.777Z,60.48
2022-08-12T06:17:25.489Z,59.93
2022-08-12T06:20:27.623Z,59.97
2022-08-12T06:22:52.735Z,59.10
2022-08-12T06:25:29.137Z,58.75
2022-08-12T06:28:07.875Z,57.95
2022-08-12T06:30:41.219Z,56.87
2022-08-12T06:33:22.849Z,56.88
2022-08-12T06:35:58.729Z,56.69
2022-08-12T06:38:32.289Z,56.10
2022-08-12T06:41:23.667Z,55.17
2022-08-12T06:44:04.760Z,55.37
2022-08-12T06:46:42.061Z,54.57
2022-08-12T06:49:14.668Z,53.52
2022-08-12T06:51:50.089Z,53.52
2022-08-12T06:54:31.162Z,53.52
2022-08-12T06:57:57.416Z,52.76
2022-08-12T06:59:57.857Z,51.25
2022-08-12T07:02:33.745Z,51.64
2022-08-12T07:05:10.576Z,51.52
2022-08-12T07:07:47.813Z,51.20
2022-08-12T07:10:23.636Z,48.82
2022-08-12T07:12:56.107Z,48.85
2022-08-12T07:15:30.602Z,49.11
2022-08-12T07:18:06.476Z,48.72
2022-08-12T07:20:52.843Z,47.82
2022-08-12T07:23:25.631Z,46.01
2022-08-12T07:25:59.107Z,45.86
2022-08-12T07:28:35.382Z,45.07
2022-08-12T07:31:12.423Z,46.12
2022-08-12T07:33:52.534Z,45.12
2022-08-12T07:36:25.501Z,42.20
2022-08-12T07:38:58.549Z,43.48
2022-08-12T07:41:32.257Z,43.51
2022-08-12T07:44:07.912Z,42.24
2022-08-12T07:46:43.261Z,42.06
2022-08-12T07:49:16.074Z,39.95
2022-08-12T07:51:48.506Z,39.18
2022-08-12T07:54:20.958Z,38.19
2022-08-12T07:56:53.411Z,39.21
2022-08-12T07:59:27.376Z,38.70
2022-08-12T08:02:02.260Z,39.63
2022-08-12T08:04:53.246Z,39.68
2022-08-12T08:07:27.407Z,37.94
2022-08-12T08:10:06.780Z,38.11
2022-08-12T08:12:55.847Z,38.14
2022-08-12T08:16:00.689Z,35.97
2022-08-12T08:18:27.619Z,37.17
2022-08-12T08:21:00.355Z,34.32
2022-08-12T08:23:56.185Z,36.30
2022-08-12T08:26:29.419Z,36.76
2022-08-12T08:29:01.819Z,32.89
2022-08-12T08:31:36.695Z,34.26
2022-08-12T08:34:49.102Z,34.20
2022-08-12T08:37:07.557Z,34.12
2022-08-12T08:39:40.391Z,32.47
2022-08-12T08:42:32.012Z,33.06
2022-08-12T08:45:12.822Z,33.00
2022-08-12T08:47:49.687Z,31.29
2022-08-12T08:50:22.663Z,30.41
2022-08-12T08:52:55.945Z,30.74
2022-08-12T08:55:48.061Z,30.40
2022-08-12T08:58:23.744Z,30.62
2022-08-12T09:00:56.301Z,30.08
2022-08-12T09:05:07.720Z,28.29
2022-08-12T09:09:17.681Z,30.12
2022-08-12T09:12:11.792Z,28.67
2022-08-12T09:14:51.041Z,26.58
2022-08-12T09:17:24.144Z,26.76
2022-08-12T09:19:58.302Z,26.51
2022-08-12T09:22:35.061Z,27.89
2022-08-12T09:25:07.901Z,27.17
2022-08-12T09:28:03.427Z,26.97
2022-08-12T09:30:42.281Z,26.38
2022-08-12T09:33:19.447Z,24.64
2022-08-12T09:36:07.861Z,23.59
2022-08-12T09:38:58.998Z,23.43
2022-08-12T09:42:32.763Z,25.04
2022-08-12T09:45:17.648Z,24.45
2022-08-12T09:47:45.576Z,25.20
2022-08-12T09:50:31.473Z,24.07
2022-08-12T09:53:15.591Z,23.49
2022-08-12T09:56:06.703Z,24.94
2022-08-12T09:59:01.029Z,22.51
2022-08-12T10:02:43.278Z,23.64
2022-08-12T10:04:30.259Z,21.43
2022-08-12T10:07:03.069Z,23.39
2022-08-12T10:09:58.039Z,22.39
2022-08-12T10:13:06.974Z,22.89
2022-08-12T10:16:02.618Z,20.92
2022-08-12T10:18:35.504Z,20.83
2022-08-12T10:21:14.840Z,22.04
2022-08-12T10:23:51.486Z,21.81
2022-08-12T10:26:46.843Z,23.05
2022-08-12T10:30:37.579Z,20.65
2022-08-12T10:32:44.945Z,21.44
2022-08-12T10:35:25.120Z,22.17
2022-08-12T10:38:37.290Z,22.70
2022-08-12T10:41:19.049Z,21.15
2022-08-12T10:43:56.515Z,19.67
2022-08-12T10:46:31.096Z,20.58
2022-08-12T10:49:06.374Z,19.18
2022-08-12T10:52:33.116Z,21.26
2022-08-12T10:54:50.960Z,20.08
2022-08-12T10:58:14.998Z,18.90
2022-08-12T11:00:34.503Z,18.88
2022-08-12T11:04:27.480Z,19.63
2022-08-12T11:07:08.742Z,20.11
2022-08-12T11:08:58.864Z,19.86
2022-08-12T11:12:34.529Z,19.84
2022-08-12T11:14:49.287Z,19.80
2022-08-12T11:17:42.933Z,18.47
2022-08-12T11:20:16.178Z,19.43
2022-08-12T11:22:59.612Z,18.78
2022-08-12T11:25:55.563Z,19.35
2022-08-12T11:28:34.987Z,19.25
2022-08-12T11:31:14.126Z,20.10
2022-08-12T11:34:05.327Z,19.22
2022-08-12T11:36:57.263Z,19.25
2022-08-12T11:42:32.540Z,18.91
2022-08-12T11:45:05.834Z,19.84
2022-08-12T11:47:42.937Z,19.13
2022-08-12T11:50:19.179Z,19.22
2022-08-12T11:52:55.394Z,19.15
2022-08-12T11:55:29.742Z,19.34
2022-08-12T11:58:09.500Z,18.64
2022-08-12T12:03:47.867Z,18.34
2022-08-12T12:06:23.033Z,19.13
2022-08-12T12:08:56.205Z,18.45
2022-08-12T12:11:49.295Z,18.05
2022-08-12T12:14:38.292Z,16.41
2022-08-12T12:17:11.665Z,18.45
2022-08-12T12:19:46.402Z,18.19
2022-08-12T12:22:23.539Z,17.69
2022-08-12T12:25:08.959Z,17.16
2022-08-12T12:28:05.816Z,18.27
2022-08-12T12:30:39.645Z,18.03
2022-08-12T12:33:56.836Z,18.40
2022-08-12T12:36:24.071Z,17.36
2022-08-12T12:39:02.345Z,17.82
2022-08-12T12:42:43.855Z,18.38
2022-08-12T12:44:42.085Z,18.31
2022-08-12T12:47:29.216Z,18.96
2022-08-12T12:50:02.584Z,18.90
2022-08-12T12:52:38.634Z,17.65
2022-08-12T12:55:16.165Z,18.14
2022-08-12T12:58:00.039Z,18.69
2022-08-12T13:00:33.565Z,18.07
2022-08-12T13:03:06.093Z,18.54
2022-08-12T13:05:53.836Z,16.60
2022-08-12T13:08:35.428Z,17.37
2022-08-12T13:11:09.096Z,18.06
2022-08-12T13:14:10.149Z,17.21
2022-08-12T13:16:36.362Z,18.11
2022-08-12T13:19:16.461Z,17.72
2022-08-12T13:22:17.982Z,18.16
2022-08-12T13:24:55.598Z,17.17
2022-08-12T13:27:36.407Z,17.58
2022-08-12T13:30:12.402Z,17.42
2022-08-12T13:32:57.538Z,17.32
2022-08-12T13:36:05.594Z,17.70
2022-08-12T13:38:52.152Z,17.92
2022-08-12T13:41:36.423Z,17.30
2022-08-12T13:44:10.618Z,17.39
2022-08-12T13:46:43.447Z,17.06
2022-08-12T13:49:17.602Z,17.32
2022-08-12T13:52:08.508Z,17.33
2022-08-12T13:54:40.968Z,17.30
2022-08-12T13:57:17.113Z,17.64
2022-08-12T13:59:55.626Z,17.69
2022-08-12T14:02:33.128Z,16.54
2022-08-12T14:05:31.006Z,17.40
2022-08-12T14:08:07.799Z,17.16
2022-08-12T14:10:55.636Z,17.74
2022-08-12T14:14:04.564Z,16.76
2022-08-12T14:16:37.984Z,16.70
2022-08-12T14:19:24.888Z,17.29
2022-08-12T14:22:04.265Z,16.89
2022-08-12T14:24:41.076Z,17.98
2022-08-12T14:27:13.883Z,18.03
2022-08-12T14:30:05.474Z,17.76
2022-08-12T14:32:39.045Z,16.88
2022-08-12T14:35:11.653Z,17.43
2022-08-12T14:37:57.017Z,17.86
2022-08-12T14:40:31.416Z,18.12
2022-08-12T14:43:06.353Z,18.06
2022-08-12T14:45:48.956Z,17.32
2022-08-12T14:48:24.531Z,16.78
2022-08-12T14:52:16.073Z,17.34
2022-08-12T14:55:18.159Z,17.68
2022-08-12T14:59:58.201Z,17.41
2022-08-12T15:02:31.114Z,18.13
2022-08-12T15:05:04.286Z,18.19
2022-08-12T15:07:49.333Z,18.36
2022-08-12T15:10:24.962Z,18.51
2022-08-12T15:13:07.338Z,18.70
2022-08-12T15:15:44.052Z,19.38
2022-08-12T15:18:22.803Z,19.07
2022-08-12T15:21:00.172Z,19.30
2022-08-12T15:23:45.740Z,19.50
2022-08-12T15:26:36.645Z,19.11
2022-08-12T15:29:11.538Z,18.75
2022-08-12T15:32:01.337Z,18.73
2022-08-12T15:34:38.713Z,18.24
2022-08-12T15:37:11.153Z,17.64
2022-08-12T15:39:55.257Z,18.31
2022-08-12T15:42:34.406Z,17.64
2022-08-12T15:45:08.601Z,17.93
2022-08-12T15:47:49.656Z,17.66
2022-08-12T15:50:26.616Z,17.54
2022-08-12T15:53:13.887Z,17.61
2022-08-12T15:55:49.225Z,17.56
2022-08-12T15:58:25.308Z,18.60
2022-08-12T16:00:59.700Z,18.08
2022-08-12T16:03:45.635Z,17.69
2022-08-12T16:07:00.511Z,18.26
2022-08-12T16:09:55.901Z,18.62
2022-08-12T16:12:16.682Z,18.46
2022-08-12T16:14:57.324Z,19.10
2022-08-12T16:18:14.689Z,19.63
2022-08-12T16:20:33.014Z,19.48
2022-08-12T16:23:27.049Z,18.05
2022-08-12T16:26:14.550Z,18.21
2022-08-12T16:28:48.429Z,16.98
2022-08-12T16:31:22.966Z,18.25
2022-08-12T16:33:59.186Z,18.29
2022-08-12T16:36:33.855Z,18.08
2022-08-12T16:39:07.419Z,18.29
2022-08-12T16:41:41.349Z,18.21
2022-08-12T16:44:14.408Z,18.76
2022-08-12T16:46:57.894Z,17.80
2022-08-12T16:49:41.145Z,18.03
2022-08-12T16:52:17.390Z,18.92
2022-08-12T16:54:53.119Z,18.59
2022-08-12T16:57:35.030Z,18.43
2022-08-12T17:00:11.505Z,17.68
2022-08-12T17:02:54.846Z,17.89
2022-08-12T17:05:31.579Z,18.74
2022-08-12T17:08:07.554Z,18.55
2022-08-12T17:10:40.162Z,18.86
2022-08-12T17:13:26.207Z,21.13
2022-08-12T17:16:17.910Z,22.12
2022-08-12T17:19:09.269Z,21.21
2022-08-12T17:21:59.432Z,21.06
2022-08-12T17:24:37.290Z,20.81
2022-08-12T17:27:16.756Z,21.15
2022-08-12T17:30:01.959Z,22.16
2022-08-12T17:32:39.655Z,22.83
2022-08-12T17:35:30.067Z,23.06
2022-08-12T17:38:11.560Z,24.54
2022-08-12T17:40:46.893Z,23.84
2022-08-12T17:43:56.179Z,24.20
2022-08-12T17:46:24.002Z,23.94
2022-08-12T17:49:18.910Z,24.61
2022-08-12T17:52:02.423Z,24.46
2022-08-12T17:54:37.185Z,24.49
2022-08-12T17:57:16.406Z,25.66
2022-08-12T17:59:49.893Z,24.26
2022-08-12T18:02:31.013Z,24.64
2022-08-12T18:05:05.898Z,23.91
2022-08-12T18:07:44.558Z,24.51
2022-08-12T18:10:39.340Z,25.10
2022-08-12T18:13:40.494Z,24.68
2022-08-12T18:16:13.146Z,24.63
2022-08-12T18:18:48.993Z,24.82
2022-08-12T18:21:22.322Z,25.29
2022-08-12T18:23:56.416Z,25.16
2022-08-12T18:26:31.680Z,25.33
2022-08-12T18:29:07.203Z,25.92
2022-08-12T18:31:44.224Z,25.74
2022-08-12T18:34:20.398Z,25.85
2022-08-12T18:36:55.617Z,25.84
2022-08-12T18:39:48.520Z,26.55
2022-08-12T18:42:26.167Z,26.42
2022-08-12T18:45:12.377Z,26.59
2022-08-12T18:47:51.918Z,26.95
2022-08-12T18:50:24.748Z,27.74
2022-08-12T18:52:57.382Z,27.63
2022-08-12T18:55:37.218Z,27.44
2022-08-12T18:58:14.021Z,27.28
2022-08-12T19:00:54.599Z,27.82
2022-08-12T19:03:39.785Z,28.05
2022-08-12T19:06:16.056Z,27.84
2022-08-12T19:08:54.338Z,28.14
2022-08-12T19:11:49.311Z,28.20
2022-08-12T19:14:27.539Z,29.23
2022-08-12T19:17:04.742Z,29.41
2022-08-12T19:19:41.913Z,29.01
2022-08-12T19:22:28.682Z,29.70
2022-08-12T19:25:19.823Z,29.32
2022-08-12T19:27:57.693Z,30.41
2022-08-12T19:30:54.315Z,30.01
2022-08-12T19:33:33.382Z,30.39
2022-08-12T19:36:23.802Z,30.42
2022-08-12T19:39:00.414Z,30.81
2022-08-12T19:41:55.624Z,31.02
2022-08-12T19:44:35.649Z,32.40
2022-08-12T19:47:18.059Z,35.89
2022-08-12T19:49:55.881Z,35.31
2022-08-12T19:52:43.958Z,33.40
2022-08-12T19:55:40.204Z,33.67
2022-08-12T19:58:19.589Z,34.67
2022-08-12T20:00:58.233Z,34.26
2022-08-12T20:03:44.055Z,35.86
2022-08-12T20:06:23.484Z,36.19
2022-08-12T20:09:38.984Z,35.69
2022-08-12T20:13:18.597Z,35.25
2022-08-12T20:15:59.803Z,35.50
2022-08-12T20:22:33.419Z,36.35
2022-08-12T20:25:10.514Z,36.55
2022-08-12T20:28:06.488Z,35.68
2022-08-12T20:31:00.897Z,35.53
2022-08-12T20:33:56.724Z,35.99
2022-08-12T20:36:44.463Z,36.36
2022-08-12T20:39:53.017Z,36.70
2022-08-12T20:42:24.004Z,36.99
2022-08-12T20:45:02.824Z,37.23
2022-08-12T20:47:46.663Z,38.71
2022-08-12T20:50:19.976Z,38.19
2022-08-12T20:53:27.612Z,38.55
2022-08-12T20:56:06.619Z,38.83
2022-08-12T20:59:03.426Z,38.35
2022-08-12T21:01:48.390Z,38.61
2022-08-12T21:08:01.744Z,39.30
2022-08-12T21:10:40.526Z,39.68
2022-08-12T21:13:20.686Z,39.14
2022-08-12T21:16:00.117Z,38.30
2022-08-12T21:18:33.349Z,39.24
2022-08-12T21:21:23.165Z,39.69
2022-08-12T21:24:05.345Z,40.38
2022-08-12T21:26:53.550Z,40.63
2022-08-12T21:30:02.293Z,39.41
2022-08-12T21:32:55.391Z,38.92
2022-08-12T21:35:31.123Z,39.65
2022-08-12T21:38:08.687Z,39.61
2022-08-12T21:40:55.978Z,39.64
2022-08-12T21:43:45.282Z,39.23
2022-08-12T21:46:35.369Z,40.21
2022-08-12T21:49:11.800Z,39.41
2022-08-12T21:51:49.306Z,39.49
2022-08-12T21:54:31.208Z,39.77
2022-08-12T21:57:05.044Z,38.93
2022-08-12T21:59:50.554Z,39.33
2022-08-12T22:02:48.717Z,40.48
2022-08-12T22:05:53.997Z,40.31
2022-08-12T22:08:37.161Z,40.12
2022-08-12T22:11:10.053Z,40.74
2022-08-12T22:14:02.234Z,39.02
2022-08-12T22:20:54.932Z,39.90
2022-08-12T22:24:05.968Z,40.04
2022-08-12T22:31:43.808Z,39.12
2022-08-12T22:39:07.602Z,40.63
2022-08-12T22:44:52.688Z,40.31
2022-08-12T22:51:07.033Z,40.59
2022-08-12T22:53:56.689Z,42.55
2022-08-12T22:56:54.861Z,40.00
2022-08-12T22:59:55.428Z,40.06
2022-08-12T23:02:38.585Z,40.60
2022-08-12T23:05:14.137Z,40.10
2022-08-12T23:08:13.920Z,40.47
2022-08-12T23:10:59.368Z,40.68
2022-08-12T23:14:00.914Z,40.14
2022-08-12T23:16:46.506Z,41.24
2022-08-12T23:19:52.009Z,41.40
2022-08-12T23:22:37.309Z,43.06
2022-08-12T23:25:20.920Z,42.02
2022-08-12T23:30:18.050Z,42.00
2022-08-12T23:32:01.831Z,42.15
2022-08-12T23:34:31.721Z,42.36
2022-08-12T23:40:30.518Z,43.52
2022-08-12T23:43:12.414Z,44.56
2022-08-12T23:46:00.510Z,44.44
2022-08-12T23:48:37.922Z,45.09
2022-08-12T23:51:35.032Z,45.04
2022-08-12T23:54:09.978Z,45.36
2022-08-12T23:56:45.106Z,46.13
